sensor_id;sensor_type;location;lat;lon;timestamp;pressure;altitude;pressure_sealevel;temperature;humidity
29935;BME280;19905;53.370;-6.314;2023-05-25T00:00:02;102685.66;;;14.59;100.00
29935;BME280;19905;53.370;-6.314;2023-05-25T00:02:32;102690.13;;;14.58;100.00
29935;BME280;19905;53.370;-6.314;2023-05-25T00:05:02;102685.75;;;14.57;100.00
29935;BME280;19905;53.370;-6.314;2023-05-25T00:07:31;102688.41;;;14.57;100.00
29935;BME280;19905;53.370;-6.314;2023-05-25T00:09:59;102679.94;;;14.51;100.00
29935;BME280;19905;53.370;-6.314;2023-05-25T00:12:30;102678.34;;;14.48;100.00
29935;BME280;19905;53.370;-6.314;2023-05-25T00:14:58;102677.63;;;14.44;100.00
29935;BME280;19905;53.370;-6.314;2023-05-25T00:17:27;102678.88;;;14.39;100.00
29935;BME280;19905;53.370;-6.314;2023-05-25T00:19:58;102677.25;;;14.36;100.00
29935;BME280;19905;53.370;-6.314;2023-05-25T00:22:34;102676.41;;;14.36;100.00
29935;BME280;19905;53.370;-6.314;2023-05-25T00:25:03;102676.22;;;14.39;100.00
29935;BME280;19905;53.370;-6.314;2023-05-25T00:27:34;102675.53;;;14.35;100.00
29935;BME280;19905;53.370;-6.314;2023-05-25T00:30:03;102672.88;;;14.35;100.00
29935;BME280;19905;53.370;-6.314;2023-05-25T00:32:31;102677.91;;;14.40;100.00
29935;BME280;19905;53.370;-6.314;2023-05-25T00:35:00;102674.19;;;14.42;100.00
29935;BME280;19905;53.370;-6.314;2023-05-25T00:37:28;102675.34;;;14.38;100.00
29935;BME280;19905;53.370;-6.314;2023-05-25T00:39:57;102673.63;;;14.37;100.00
29935;BME280;19905;53.370;-6.314;2023-05-25T00:42:25;102673.06;;;14.32;100.00
29935;BME280;19905;53.370;-6.314;2023-05-25T00:44:56;102677.97;;;14.24;100.00
29935;BME280;19905;53.370;-6.314;2023-05-25T00:47:25;102672.97;;;14.34;100.00
29935;BME280;19905;53.370;-6.314;2023-05-25T00:49:54;102680.63;;;14.24;100.00
29935;BME280;19905;53.370;-6.314;2023-05-25T00:52:23;102674.94;;;14.16;100.00
29935;BME280;19905;53.370;-6.314;2023-05-25T00:54:53;102684.63;;;14.17;100.00
29935;BME280;19905;53.370;-6.314;2023-05-25T00:57:24;102674.47;;;14.23;100.00
29935;BME280;19905;53.370;-6.314;2023-05-25T00:59:57;102681.41;;;14.26;100.00
29935;BME280;19905;53.370;-6.314;2023-05-25T01:02:27;102686.16;;;14.21;100.00
29935;BME280;19905;53.370;-6.314;2023-05-25T01:04:59;102686.91;;;14.23;100.00
29935;BME280;19905;53.370;-6.314;2023-05-25T01:07:31;102683.22;;;14.26;100.00
29935;BME280;19905;53.370;-6.314;2023-05-25T01:10:04;102682.44;;;14.23;100.00
29935;BME280;19905;53.370;-6.314;2023-05-25T01:12:37;102677.50;;;14.17;100.00
29935;BME280;19905;53.370;-6.314;2023-05-25T01:15:08;102687.28;;;14.17;100.00
29935;BME280;19905;53.370;-6.314;2023-05-25T01:17:37;102689.94;;;14.17;100.00
29935;BME280;19905;53.370;-6.314;2023-05-25T01:20:06;102682.41;;;14.09;100.00
29935;BME280;19905;53.370;-6.314;2023-05-25T01:22:44;102691.13;;;13.97;100.00
29935;BME280;19905;53.370;-6.314;2023-05-25T01:25:19;102692.06;;;13.96;100.00
29935;BME280;19905;53.370;-6.314;2023-05-25T01:27:54;102699.44;;;13.91;100.00
29935;BME280;19905;53.370;-6.314;2023-05-25T01:30:25;102693.38;;;13.89;100.00
29935;BME280;19905;53.370;-6.314;2023-05-25T01:32:54;102696.69;;;13.92;100.00
29935;BME280;19905;53.370;-6.314;2023-05-25T01:35:23;102699.09;;;13.97;100.00
29935;BME280;19905;53.370;-6.314;2023-05-25T01:37:54;102703.75;;;13.93;100.00
29935;BME280;19905;53.370;-6.314;2023-05-25T01:40:23;102705.63;;;13.91;100.00
29935;BME280;19905;53.370;-6.314;2023-05-25T01:42:51;102709.41;;;13.87;100.00
29935;BME280;19905;53.370;-6.314;2023-05-25T01:45:20;102711.88;;;13.90;100.00
29935;BME280;19905;53.370;-6.314;2023-05-25T01:48:05;102709.63;;;13.98;100.00
29935;BME280;19905;53.370;-6.314;2023-05-25T01:50:40;102704.41;;;13.97;100.00
29935;BME280;19905;53.370;-6.314;2023-05-25T01:53:17;102705.03;;;13.86;100.00
29935;BME280;19905;53.370;-6.314;2023-05-25T01:55:52;102710.13;;;13.75;100.00
29935;BME280;19905;53.370;-6.314;2023-05-25T01:58:25;102710.56;;;13.67;100.00
29935;BME280;19905;53.370;-6.314;2023-05-25T02:00:54;102718.38;;;13.55;100.00
29935;BME280;19905;53.370;-6.314;2023-05-25T02:03:24;102716.50;;;13.57;100.00
29935;BME280;19905;53.370;-6.314;2023-05-25T02:05:53;102714.75;;;13.56;100.00
29935;BME280;19905;53.370;-6.314;2023-05-25T02:08:25;102714.53;;;13.44;100.00
29935;BME280;19905;53.370;-6.314;2023-05-25T02:10:54;102718.66;;;13.34;100.00
29935;BME280;19905;53.370;-6.314;2023-05-25T02:13:22;102718.97;;;13.28;100.00
29935;BME280;19905;53.370;-6.314;2023-05-25T02:15:52;102722.84;;;13.22;100.00
29935;BME280;19905;53.370;-6.314;2023-05-25T02:18:21;102720.75;;;13.12;100.00
29935;BME280;19905;53.370;-6.314;2023-05-25T02:20:49;102727.50;;;13.02;100.00
29935;BME280;19905;53.370;-6.314;2023-05-25T02:23:18;102732.19;;;12.96;100.00
29935;BME280;19905;53.370;-6.314;2023-05-25T02:25:48;102742.19;;;12.91;100.00
29935;BME280;19905;53.370;-6.314;2023-05-25T02:28:17;102752.03;;;12.89;100.00
29935;BME280;19905;53.370;-6.314;2023-05-25T02:30:46;102747.31;;;12.79;100.00
29935;BME280;19905;53.370;-6.314;2023-05-25T02:33:15;102748.56;;;12.71;100.00
29935;BME280;19905;53.370;-6.314;2023-05-25T02:35:44;102753.16;;;12.68;100.00
29935;BME280;19905;53.370;-6.314;2023-05-25T02:38:13;102746.00;;;12.70;100.00
29935;BME280;19905;53.370;-6.314;2023-05-25T02:40:44;102749.66;;;12.67;100.00
29935;BME280;19905;53.370;-6.314;2023-05-25T02:43:16;102751.47;;;12.67;100.00
29935;BME280;19905;53.370;-6.314;2023-05-25T02:45:45;102755.91;;;12.66;100.00
29935;BME280;19905;53.370;-6.314;2023-05-25T02:48:13;102750.94;;;12.60;100.00
29935;BME280;19905;53.370;-6.314;2023-05-25T02:50:41;102758.34;;;12.54;100.00
29935;BME280;19905;53.370;-6.314;2023-05-25T02:53:10;102749.63;;;12.52;100.00
29935;BME280;19905;53.370;-6.314;2023-05-25T02:55:39;102753.50;;;12.44;100.00
29935;BME280;19905;53.370;-6.314;2023-05-25T02:58:09;102757.56;;;12.34;100.00
29935;BME280;19905;53.370;-6.314;2023-05-25T03:00:39;102754.31;;;12.29;100.00
29935;BME280;19905;53.370;-6.314;2023-05-25T03:03:09;102755.53;;;12.22;100.00
29935;BME280;19905;53.370;-6.314;2023-05-25T03:05:38;102766.38;;;12.17;100.00
29935;BME280;19905;53.370;-6.314;2023-05-25T03:08:06;102767.69;;;12.09;100.00
29935;BME280;19905;53.370;-6.314;2023-05-25T03:10:35;102776.25;;;12.14;100.00
29935;BME280;19905;53.370;-6.314;2023-05-25T03:13:03;102777.06;;;12.16;100.00
29935;BME280;19905;53.370;-6.314;2023-05-25T03:15:32;102777.91;;;12.16;100.00
29935;BME280;19905;53.370;-6.314;2023-05-25T03:18:03;102775.88;;;12.21;100.00
29935;BME280;19905;53.370;-6.314;2023-05-25T03:20:31;102772.69;;;12.15;100.00
29935;BME280;19905;53.370;-6.314;2023-05-25T03:23:00;102777.59;;;12.05;100.00
29935;BME280;19905;53.370;-6.314;2023-05-25T03:25:29;102777.75;;;12.02;100.00
29935;BME280;19905;53.370;-6.314;2023-05-25T03:27:58;102777.88;;;11.99;100.00
29935;BME280;19905;53.370;-6.314;2023-05-25T03:30:27;102783.03;;;12.02;100.00
29935;BME280;19905;53.370;-6.314;2023-05-25T03:32:56;102781.59;;;11.95;100.00
29935;BME280;19905;53.370;-6.314;2023-05-25T03:35:26;102778.97;;;11.95;100.00
29935;BME280;19905;53.370;-6.314;2023-05-25T03:37:54;102790.41;;;11.95;100.00
29935;BME280;19905;53.370;-6.314;2023-05-25T03:40:22;102785.06;;;11.97;100.00
29935;BME280;19905;53.370;-6.314;2023-05-25T03:42:51;102793.22;;;11.92;100.00
29935;BME280;19905;53.370;-6.314;2023-05-25T03:45:20;102788.94;;;11.90;100.00
29935;BME280;19905;53.370;-6.314;2023-05-25T03:47:48;102791.66;;;11.88;100.00
29935;BME280;19905;53.370;-6.314;2023-05-25T03:50:17;102790.72;;;11.89;100.00
29935;BME280;19905;53.370;-6.314;2023-05-25T03:52:47;102784.66;;;11.87;100.00
29935;BME280;19905;53.370;-6.314;2023-05-25T03:55:16;102793.16;;;11.75;100.00
29935;BME280;19905;53.370;-6.314;2023-05-25T03:57:45;102787.22;;;11.70;100.00
29935;BME280;19905;53.370;-6.314;2023-05-25T04:00:14;102790.81;;;11.69;100.00
29935;BME280;19905;53.370;-6.314;2023-05-25T04:02:43;102787.09;;;11.73;100.00
29935;BME280;19905;53.370;-6.314;2023-05-25T04:05:12;102785.56;;;11.67;100.00
29935;BME280;19905;53.370;-6.314;2023-05-25T04:07:41;102790.84;;;11.67;100.00
29935;BME280;19905;53.370;-6.314;2023-05-25T04:10:12;102794.22;;;11.71;100.00
29935;BME280;19905;53.370;-6.314;2023-05-25T04:12:40;102802.28;;;11.68;100.00
29935;BME280;19905;53.370;-6.314;2023-05-25T04:15:10;102797.00;;;11.68;100.00
29935;BME280;19905;53.370;-6.314;2023-05-25T04:17:40;102804.09;;;11.67;100.00
29935;BME280;19905;53.370;-6.314;2023-05-25T04:20:09;102796.94;;;11.69;100.00
29935;BME280;19905;53.370;-6.314;2023-05-25T04:22:38;102791.50;;;11.73;100.00
29935;BME280;19905;53.370;-6.314;2023-05-25T04:25:07;102795.50;;;11.62;100.00
29935;BME280;19905;53.370;-6.314;2023-05-25T04:27:38;102799.63;;;11.51;100.00
29935;BME280;19905;53.370;-6.314;2023-05-25T04:30:08;102808.19;;;11.37;100.00
29935;BME280;19905;53.370;-6.314;2023-05-25T04:32:38;102812.63;;;11.36;100.00
29935;BME280;19905;53.370;-6.314;2023-05-25T04:35:11;102823.56;;;11.29;100.00
29935;BME280;19905;53.370;-6.314;2023-05-25T04:37:41;102824.06;;;11.18;100.00
29935;BME280;19905;53.370;-6.314;2023-05-25T04:40:10;102819.75;;;11.15;100.00
29935;BME280;19905;53.370;-6.314;2023-05-25T04:42:41;102817.22;;;11.12;100.00
29935;BME280;19905;53.370;-6.314;2023-05-25T04:45:10;102818.97;;;11.13;100.00
29935;BME280;19905;53.370;-6.314;2023-05-25T04:47:43;102824.84;;;11.20;100.00
29935;BME280;19905;53.370;-6.314;2023-05-25T04:50:13;102829.13;;;11.23;100.00
29935;BME280;19905;53.370;-6.314;2023-05-25T04:52:42;102822.09;;;11.22;100.00
29935;BME280;19905;53.370;-6.314;2023-05-25T04:55:10;102830.97;;;11.20;100.00
29935;BME280;19905;53.370;-6.314;2023-05-25T04:57:40;102819.09;;;11.10;100.00
29935;BME280;19905;53.370;-6.314;2023-05-25T05:00:10;102821.81;;;11.09;100.00
29935;BME280;19905;53.370;-6.314;2023-05-25T05:02:41;102818.16;;;11.11;100.00
29935;BME280;19905;53.370;-6.314;2023-05-25T05:05:10;102826.69;;;11.18;100.00
29935;BME280;19905;53.370;-6.314;2023-05-25T05:07:39;102828.25;;;11.22;100.00
29935;BME280;19905;53.370;-6.314;2023-05-25T05:10:08;102829.25;;;11.19;100.00
29935;BME280;19905;53.370;-6.314;2023-05-25T05:12:36;102826.41;;;11.24;100.00
29935;BME280;19905;53.370;-6.314;2023-05-25T05:15:07;102830.00;;;11.23;100.00
29935;BME280;19905;53.370;-6.314;2023-05-25T05:17:35;102823.31;;;11.14;100.00
29935;BME280;19905;53.370;-6.314;2023-05-25T05:20:05;102827.69;;;11.15;100.00
29935;BME280;19905;53.370;-6.314;2023-05-25T05:22:36;102824.53;;;11.26;100.00
29935;BME280;19905;53.370;-6.314;2023-05-25T05:25:06;102834.88;;;11.32;100.00
29935;BME280;19905;53.370;-6.314;2023-05-25T05:27:35;102830.25;;;11.36;100.00
29935;BME280;19905;53.370;-6.314;2023-05-25T05:30:07;102826.28;;;11.46;100.00
29935;BME280;19905;53.370;-6.314;2023-05-25T05:32:36;102820.28;;;11.42;100.00
29935;BME280;19905;53.370;-6.314;2023-05-25T05:35:05;102835.78;;;11.31;100.00
29935;BME280;19905;53.370;-6.314;2023-05-25T05:37:34;102828.50;;;11.36;100.00
29935;BME280;19905;53.370;-6.314;2023-05-25T05:40:04;102824.28;;;11.32;100.00
29935;BME280;19905;53.370;-6.314;2023-05-25T05:42:32;102823.78;;;11.43;100.00
29935;BME280;19905;53.370;-6.314;2023-05-25T05:45:01;102828.44;;;11.38;100.00
29935;BME280;19905;53.370;-6.314;2023-05-25T05:47:31;102833.13;;;11.31;100.00
29935;BME280;19905;53.370;-6.314;2023-05-25T05:50:00;102828.13;;;11.25;100.00
29935;BME280;19905;53.370;-6.314;2023-05-25T05:52:29;102832.13;;;11.34;100.00
29935;BME280;19905;53.370;-6.314;2023-05-25T05:54:58;102837.50;;;11.32;100.00
29935;BME280;19905;53.370;-6.314;2023-05-25T05:57:27;102839.44;;;11.29;100.00
29935;BME280;19905;53.370;-6.314;2023-05-25T05:59:55;102839.63;;;11.24;100.00
29935;BME280;19905;53.370;-6.314;2023-05-25T06:02:24;102831.69;;;11.24;100.00
29935;BME280;19905;53.370;-6.314;2023-05-25T06:04:54;102837.06;;;11.23;100.00
29935;BME280;19905;53.370;-6.314;2023-05-25T06:07:23;102831.50;;;11.29;100.00
29935;BME280;19905;53.370;-6.314;2023-05-25T06:09:52;102835.13;;;11.26;100.00
29935;BME280;19905;53.370;-6.314;2023-05-25T06:12:22;102828.34;;;11.20;100.00
29935;BME280;19905;53.370;-6.314;2023-05-25T06:14:50;102841.44;;;11.24;100.00
29935;BME280;19905;53.370;-6.314;2023-05-25T06:17:19;102837.13;;;11.21;100.00
29935;BME280;19905;53.370;-6.314;2023-05-25T06:19:48;102834.56;;;11.19;100.00
29935;BME280;19905;53.370;-6.314;2023-05-25T06:22:18;102852.66;;;11.29;100.00
29935;BME280;19905;53.370;-6.314;2023-05-25T06:24:48;102846.50;;;11.28;100.00
29935;BME280;19905;53.370;-6.314;2023-05-25T06:27:16;102854.81;;;11.39;100.00
29935;BME280;19905;53.370;-6.314;2023-05-25T06:29:45;102857.25;;;11.44;100.00
29935;BME280;19905;53.370;-6.314;2023-05-25T06:32:13;102853.44;;;11.50;100.00
29935;BME280;19905;53.370;-6.314;2023-05-25T06:34:42;102847.94;;;11.35;100.00
29935;BME280;19905;53.370;-6.314;2023-05-25T06:37:11;102856.69;;;11.37;100.00
29935;BME280;19905;53.370;-6.314;2023-05-25T06:39:42;102859.69;;;11.49;100.00
29935;BME280;19905;53.370;-6.314;2023-05-25T06:42:11;102863.78;;;11.56;100.00
29935;BME280;19905;53.370;-6.314;2023-05-25T06:44:39;102858.91;;;11.65;100.00
29935;BME280;19905;53.370;-6.314;2023-05-25T06:47:08;102858.63;;;11.71;100.00
29935;BME280;19905;53.370;-6.314;2023-05-25T06:49:36;102863.13;;;11.69;100.00
29935;BME280;19905;53.370;-6.314;2023-05-25T06:52:05;102875.22;;;11.56;100.00
29935;BME280;19905;53.370;-6.314;2023-05-25T06:54:33;102873.34;;;11.58;100.00
29935;BME280;19905;53.370;-6.314;2023-05-25T06:57:03;102873.72;;;11.69;100.00
29935;BME280;19905;53.370;-6.314;2023-05-25T06:59:32;102873.44;;;11.76;100.00
29935;BME280;19905;53.370;-6.314;2023-05-25T07:02:01;102871.72;;;11.75;100.00
29935;BME280;19905;53.370;-6.314;2023-05-25T07:04:29;102874.50;;;11.71;100.00
29935;BME280;19905;53.370;-6.314;2023-05-25T07:06:59;102867.44;;;11.91;100.00
29935;BME280;19905;53.370;-6.314;2023-05-25T07:09:27;102867.06;;;11.99;100.00
29935;BME280;19905;53.370;-6.314;2023-05-25T07:11:56;102872.03;;;12.06;100.00
29935;BME280;19905;53.370;-6.314;2023-05-25T07:14:26;102872.81;;;11.89;100.00
29935;BME280;19905;53.370;-6.314;2023-05-25T07:16:54;102879.59;;;11.95;100.00
29935;BME280;19905;53.370;-6.314;2023-05-25T07:19:23;102878.44;;;12.19;100.00
29935;BME280;19905;53.370;-6.314;2023-05-25T07:21:51;102870.94;;;12.28;100.00
29935;BME280;19905;53.370;-6.314;2023-05-25T07:24:20;102874.94;;;12.36;100.00
29935;BME280;19905;53.370;-6.314;2023-05-25T07:26:48;102871.31;;;12.56;100.00
29935;BME280;19905;53.370;-6.314;2023-05-25T07:29:17;102871.94;;;12.61;100.00
29935;BME280;19905;53.370;-6.314;2023-05-25T07:31:47;102870.78;;;12.67;100.00
29935;BME280;19905;53.370;-6.314;2023-05-25T07:34:16;102859.00;;;12.72;100.00
29935;BME280;19905;53.370;-6.314;2023-05-25T07:36:46;102852.75;;;12.73;100.00
29935;BME280;19905;53.370;-6.314;2023-05-25T07:39:15;102848.56;;;12.69;100.00
29935;BME280;19905;53.370;-6.314;2023-05-25T07:41:45;102850.19;;;12.72;100.00
29935;BME280;19905;53.370;-6.314;2023-05-25T07:44:13;102853.44;;;12.77;100.00
29935;BME280;19905;53.370;-6.314;2023-05-25T07:46:42;102848.28;;;12.91;100.00
29935;BME280;19905;53.370;-6.314;2023-05-25T07:49:12;102852.09;;;13.03;100.00
29935;BME280;19905;53.370;-6.314;2023-05-25T07:51:42;102845.78;;;13.06;100.00
29935;BME280;19905;53.370;-6.314;2023-05-25T07:54:11;102842.66;;;13.15;100.00
29935;BME280;19905;53.370;-6.314;2023-05-25T07:56:40;102836.22;;;13.19;100.00
29935;BME280;19905;53.370;-6.314;2023-05-25T07:59:09;102835.16;;;13.23;100.00
29935;BME280;19905;53.370;-6.314;2023-05-25T08:01:38;102840.50;;;13.39;100.00
29935;BME280;19905;53.370;-6.314;2023-05-25T08:04:06;102844.56;;;13.62;100.00
29935;BME280;19905;53.370;-6.314;2023-05-25T08:06:37;102836.94;;;13.71;100.00
29935;BME280;19905;53.370;-6.314;2023-05-25T08:09:07;102836.75;;;13.59;100.00
29935;BME280;19905;53.370;-6.314;2023-05-25T08:11:35;102829.72;;;13.73;100.00
29935;BME280;19905;53.370;-6.314;2023-05-25T08:14:04;102831.09;;;13.81;100.00
29935;BME280;19905;53.370;-6.314;2023-05-25T08:16:33;102840.94;;;13.63;100.00
29935;BME280;19905;53.370;-6.314;2023-05-25T08:19:03;102834.38;;;13.70;100.00
29935;BME280;19905;53.370;-6.314;2023-05-25T08:21:31;102837.00;;;13.86;100.00
29935;BME280;19905;53.370;-6.314;2023-05-25T08:24:03;102829.28;;;13.97;100.00
29935;BME280;19905;53.370;-6.314;2023-05-25T08:26:34;102832.38;;;13.89;100.00
29935;BME280;19905;53.370;-6.314;2023-05-25T08:29:19;102827.25;;;13.86;100.00
29935;BME280;19905;53.370;-6.314;2023-05-25T08:31:49;102827.31;;;14.01;100.00
29935;BME280;19905;53.370;-6.314;2023-05-25T08:34:17;102835.13;;;13.88;100.00
29935;BME280;19905;53.370;-6.314;2023-05-25T08:36:46;102833.56;;;13.99;100.00
29935;BME280;19905;53.370;-6.314;2023-05-25T08:39:17;102832.69;;;14.15;100.00
29935;BME280;19905;53.370;-6.314;2023-05-25T08:41:45;102831.22;;;14.25;100.00
29935;BME280;19905;53.370;-6.314;2023-05-25T08:44:14;102835.34;;;14.15;100.00
29935;BME280;19905;53.370;-6.314;2023-05-25T08:46:45;102840.75;;;14.13;100.00
29935;BME280;19905;53.370;-6.314;2023-05-25T08:49:16;102831.75;;;14.16;100.00
29935;BME280;19905;53.370;-6.314;2023-05-25T08:51:49;102834.38;;;14.32;100.00
29935;BME280;19905;53.370;-6.314;2023-05-25T08:54:25;102828.31;;;14.30;100.00
29935;BME280;19905;53.370;-6.314;2023-05-25T08:57:01;102833.16;;;14.37;100.00
29935;BME280;19905;53.370;-6.314;2023-05-25T08:59:39;102834.53;;;14.29;100.00
29935;BME280;19905;53.370;-6.314;2023-05-25T09:02:20;102840.56;;;14.48;100.00
29935;BME280;19905;53.370;-6.314;2023-05-25T09:04:50;102838.84;;;14.61;100.00
29935;BME280;19905;53.370;-6.314;2023-05-25T09:07:19;102826.66;;;14.87;100.00
29935;BME280;19905;53.370;-6.314;2023-05-25T09:09:50;102828.56;;;14.99;100.00
29935;BME280;19905;53.370;-6.314;2023-05-25T09:12:19;102833.13;;;14.97;100.00
29935;BME280;19905;53.370;-6.314;2023-05-25T09:14:49;102826.28;;;14.93;100.00
29935;BME280;19905;53.370;-6.314;2023-05-25T09:17:19;102825.06;;;14.99;100.00
29935;BME280;19905;53.370;-6.314;2023-05-25T09:19:48;102825.06;;;14.99;100.00
29935;BME280;19905;53.370;-6.314;2023-05-25T09:22:17;102824.50;;;15.22;100.00
29935;BME280;19905;53.370;-6.314;2023-05-25T09:24:46;102816.97;;;15.29;100.00
29935;BME280;19905;53.370;-6.314;2023-05-25T09:27:18;102823.25;;;15.28;100.00
29935;BME280;19905;53.370;-6.314;2023-05-25T09:29:48;102816.59;;;15.35;100.00
29935;BME280;19905;53.370;-6.314;2023-05-25T09:32:18;102816.34;;;15.52;100.00
29935;BME280;19905;53.370;-6.314;2023-05-25T09:34:47;102814.91;;;15.61;100.00
29935;BME280;19905;53.370;-6.314;2023-05-25T09:37:16;102822.06;;;15.61;100.00
29935;BME280;19905;53.370;-6.314;2023-05-25T09:39:46;102817.88;;;15.85;100.00
29935;BME280;19905;53.370;-6.314;2023-05-25T09:42:16;102807.59;;;16.06;100.00
29935;BME280;19905;53.370;-6.314;2023-05-25T09:44:45;102813.22;;;16.01;100.00
29935;BME280;19905;53.370;-6.314;2023-05-25T09:47:13;102809.63;;;16.15;100.00
29935;BME280;19905;53.370;-6.314;2023-05-25T09:49:44;102817.69;;;16.28;100.00
29935;BME280;19905;53.370;-6.314;2023-05-25T09:52:14;102813.53;;;16.37;100.00
29935;BME280;19905;53.370;-6.314;2023-05-25T09:54:44;102808.59;;;16.31;100.00
29935;BME280;19905;53.370;-6.314;2023-05-25T09:57:14;102810.56;;;16.41;100.00
29935;BME280;19905;53.370;-6.314;2023-05-25T09:59:45;102813.66;;;16.48;100.00
29935;BME280;19905;53.370;-6.314;2023-05-25T10:02:13;102818.03;;;16.49;100.00
29935;BME280;19905;53.370;-6.314;2023-05-25T10:04:43;102811.22;;;16.58;100.00
29935;BME280;19905;53.370;-6.314;2023-05-25T10:07:12;102804.97;;;16.84;100.00
29935;BME280;19905;53.370;-6.314;2023-05-25T10:09:44;102814.53;;;16.61;100.00
29935;BME280;19905;53.370;-6.314;2023-05-25T10:12:16;102814.09;;;16.67;100.00
29935;BME280;19905;53.370;-6.314;2023-05-25T10:14:49;102815.44;;;16.74;100.00
29935;BME280;19905;53.370;-6.314;2023-05-25T10:17:22;102811.16;;;16.85;100.00
29935;BME280;19905;53.370;-6.314;2023-05-25T10:19:54;102812.97;;;16.84;100.00
29935;BME280;19905;53.370;-6.314;2023-05-25T10:22:30;102810.50;;;17.07;100.00
29935;BME280;19905;53.370;-6.314;2023-05-25T10:25:07;102807.91;;;17.31;100.00
29935;BME280;19905;53.370;-6.314;2023-05-25T10:27:39;102814.50;;;17.50;100.00
29935;BME280;19905;53.370;-6.314;2023-05-25T10:30:13;102815.72;;;17.34;100.00
29935;BME280;19905;53.370;-6.314;2023-05-25T10:32:43;102815.31;;;17.14;100.00
29935;BME280;19905;53.370;-6.314;2023-05-25T10:35:13;102812.00;;;17.23;100.00
29935;BME280;19905;53.370;-6.314;2023-05-25T10:37:42;102820.78;;;17.49;100.00
29935;BME280;19905;53.370;-6.314;2023-05-25T10:40:12;102817.28;;;17.49;100.00
29935;BME280;19905;53.370;-6.314;2023-05-25T10:42:44;102816.56;;;17.71;100.00
29935;BME280;19905;53.370;-6.314;2023-05-25T10:45:15;102797.91;;;17.58;100.00
29935;BME280;19905;53.370;-6.314;2023-05-25T10:47:44;102817.81;;;17.91;100.00
29935;BME280;19905;53.370;-6.314;2023-05-25T10:50:21;102814.09;;;18.04;100.00
29935;BME280;19905;53.370;-6.314;2023-05-25T10:52:58;102811.78;;;18.00;100.00
29935;BME280;19905;53.370;-6.314;2023-05-25T10:55:41;102812.63;;;18.24;100.00
29935;BME280;19905;53.370;-6.314;2023-05-25T10:58:12;102803.75;;;18.24;100.00
29935;BME280;19905;53.370;-6.314;2023-05-25T11:00:56;102804.00;;;18.32;100.00
29935;BME280;19905;53.370;-6.314;2023-05-25T11:03:47;102805.25;;;18.39;100.00
29935;BME280;19905;53.370;-6.314;2023-05-25T11:06:18;102804.31;;;18.51;100.00
29935;BME280;19905;53.370;-6.314;2023-05-25T11:08:50;102802.59;;;18.50;100.00
29935;BME280;19905;53.370;-6.314;2023-05-25T11:11:19;102802.66;;;18.73;100.00
29935;BME280;19905;53.370;-6.314;2023-05-25T11:13:49;102797.47;;;18.94;98.02
29935;BME280;19905;53.370;-6.314;2023-05-25T11:16:21;102798.31;;;19.17;100.00
29935;BME280;19905;53.370;-6.314;2023-05-25T11:18:52;102795.88;;;19.14;100.00
29935;BME280;19905;53.370;-6.314;2023-05-25T11:24:11;102781.97;;;19.53;100.00
29935;BME280;19905;53.370;-6.314;2023-05-25T11:26:57;102766.84;;;19.64;100.00
29935;BME280;19905;53.370;-6.314;2023-05-25T11:29:30;102780.94;;;19.77;100.00
29935;BME280;19905;53.370;-6.314;2023-05-25T11:32:00;102779.34;;;19.86;100.00
29935;BME280;19905;53.370;-6.314;2023-05-25T11:34:29;102767.47;;;19.88;100.00
29935;BME280;19905;53.370;-6.314;2023-05-25T11:37:00;102769.53;;;19.96;100.00
29935;BME280;19905;53.370;-6.314;2023-05-25T11:42:56;102773.59;;;19.90;98.01
29935;BME280;19905;53.370;-6.314;2023-05-25T11:45:30;102773.28;;;20.04;96.67
29935;BME280;19905;53.370;-6.314;2023-05-25T11:48:03;102773.66;;;20.00;95.46
29935;BME280;19905;53.370;-6.314;2023-05-25T11:50:32;102776.28;;;19.90;95.12
29935;BME280;19905;53.370;-6.314;2023-05-25T11:53:03;102774.66;;;19.99;95.40
29935;BME280;19905;53.370;-6.314;2023-05-25T11:55:33;102767.75;;;19.85;95.72
29935;BME280;19905;53.370;-6.314;2023-05-25T11:58:02;102767.84;;;20.16;93.11
29935;BME280;19905;53.370;-6.314;2023-05-25T12:00:30;102768.66;;;20.27;92.82
29935;BME280;19905;53.370;-6.314;2023-05-25T12:02:59;102762.56;;;20.46;91.66
29935;BME280;19905;53.370;-6.314;2023-05-25T12:05:37;102760.53;;;20.39;93.50
29935;BME280;19905;53.370;-6.314;2023-05-25T12:08:07;102765.81;;;20.71;92.20
29935;BME280;19905;53.370;-6.314;2023-05-25T12:10:48;102762.75;;;21.06;90.97
29935;BME280;19905;53.370;-6.314;2023-05-25T12:13:17;102760.66;;;21.19;90.55
29935;BME280;19905;53.370;-6.314;2023-05-25T12:15:46;102764.78;;;21.23;91.45
29935;BME280;19905;53.370;-6.314;2023-05-25T12:18:15;102760.47;;;21.01;90.85
29935;BME280;19905;53.370;-6.314;2023-05-25T12:20:46;102766.56;;;21.03;89.92
29935;BME280;19905;53.370;-6.314;2023-05-25T12:23:15;102761.91;;;21.05;89.03
29935;BME280;19905;53.370;-6.314;2023-05-25T12:25:45;102765.91;;;21.21;88.40
29935;BME280;19905;53.370;-6.314;2023-05-25T12:28:17;102763.19;;;21.11;88.47
29935;BME280;19905;53.370;-6.314;2023-05-25T12:30:46;102761.81;;;21.17;89.30
29935;BME280;19905;53.370;-6.314;2023-05-25T12:33:15;102753.88;;;21.25;89.51
29935;BME280;19905;53.370;-6.314;2023-05-25T12:35:46;102756.28;;;21.59;88.19
29935;BME280;19905;53.370;-6.314;2023-05-25T12:38:17;102747.91;;;21.71;87.38
29935;BME280;19905;53.370;-6.314;2023-05-25T12:40:46;102759.66;;;21.51;87.72
29935;BME280;19905;53.370;-6.314;2023-05-25T12:43:15;102753.16;;;21.63;87.34
29935;BME280;19905;53.370;-6.314;2023-05-25T12:45:45;102753.00;;;21.84;87.95
29935;BME280;19905;53.370;-6.314;2023-05-25T12:48:14;102764.34;;;21.97;87.97
29935;BME280;19905;53.370;-6.314;2023-05-25T12:50:59;102759.25;;;21.65;88.22